sensor_id;sensor_type;location;lat;lon;timestamp;P1;durP1;ratioP1;P2;durP2;ratioP2
22995;SDS011;11664;49.774;8.650;2022-12-11T00:34:11;15.45;;;9.52;;
22995;SDS011;11664;49.774;8.650;2022-12-11T00:36:36;14.63;;;8.57;;
22995;SDS011;11664;49.774;8.650;2022-12-11T00:39:03;15.30;;;9.10;;
22995;SDS011;11664;49.774;8.650;2022-12-11T00:41:29;10.43;;;7.80;;
22995;SDS011;11664;49.774;8.650;2022-12-11T00:43:56;17.13;;;7.72;;
22995;SDS011;11664;49.774;8.650;2022-12-11T00:46:22;19.90;;;10.45;;
22995;SDS011;11664;49.774;8.650;2022-12-11T00:48:47;16.70;;;9.40;;
22995;SDS011;11664;49.774;8.650;2022-12-11T00:51:14;14.02;;;8.35;;
22995;SDS011;11664;49.774;8.650;2022-12-11T00:53:40;18.88;;;10.70;;
22995;SDS011;11664;49.774;8.650;2022-12-11T00:56:08;16.73;;;9.95;;
22995;SDS011;11664;49.774;8.650;2022-12-11T00:58:34;19.75;;;10.32;;
22995;SDS011;11664;49.774;8.650;2022-12-11T01:01:10;19.13;;;10.25;;
22995;SDS011;11664;49.774;8.650;2022-12-11T01:03:39;17.63;;;9.70;;
22995;SDS011;11664;49.774;8.650;2022-12-11T01:06:05;21.15;;;10.90;;
22995;SDS011;11664;49.774;8.650;2022-12-11T01:08:31;18.05;;;9.93;;
22995;SDS011;11664;49.774;8.650;2022-12-11T01:11:04;22.70;;;11.60;;
22995;SDS011;11664;49.774;8.650;2022-12-11T01:13:32;21.50;;;10.82;;
22995;SDS011;11664;49.774;8.650;2022-12-11T01:15:58;21.50;;;12.07;;
22995;SDS011;11664;49.774;8.650;2022-12-11T01:18:24;16.67;;;9.82;;
22995;SDS011;11664;49.774;8.650;2022-12-11T01:20:51;16.65;;;10.60;;
22995;SDS011;11664;49.774;8.650;2022-12-11T01:23:16;18.80;;;10.32;;
22995;SDS011;11664;49.774;8.650;2022-12-11T01:25:42;18.00;;;10.82;;
22995;SDS011;11664;49.774;8.650;2022-12-11T01:28:08;23.70;;;10.35;;
22995;SDS011;11664;49.774;8.650;2022-12-11T01:30:34;20.05;;;11.55;;
22995;SDS011;11664;49.774;8.650;2022-12-11T01:33:00;19.05;;;10.88;;
22995;SDS011;11664;49.774;8.650;2022-12-11T01:35:26;25.85;;;11.52;;
22995;SDS011;11664;49.774;8.650;2022-12-11T01:37:51;30.25;;;14.10;;
22995;SDS011;11664;49.774;8.650;2022-12-11T01:40:18;29.45;;;13.27;;
22995;SDS011;11664;49.774;8.650;2022-12-11T01:42:44;22.65;;;12.13;;
22995;SDS011;11664;49.774;8.650;2022-12-11T01:47:56;21.27;;;10.55;;
22995;SDS011;11664;49.774;8.650;2022-12-11T01:50:28;22.52;;;10.82;;
22995;SDS011;11664;49.774;8.650;2022-12-11T01:52:55;24.35;;;11.32;;
22995;SDS011;11664;49.774;8.650;2022-12-11T01:55:21;18.15;;;10.18;;
22995;SDS011;11664;49.774;8.650;2022-12-11T01:57:47;25.67;;;12.50;;
22995;SDS011;11664;49.774;8.650;2022-12-11T02:00:15;21.33;;;11.88;;
22995;SDS011;11664;49.774;8.650;2022-12-11T02:02:41;20.55;;;12.98;;
22995;SDS011;11664;49.774;8.650;2022-12-11T02:05:07;27.23;;;12.20;;
22995;SDS011;11664;49.774;8.650;2022-12-11T02:07:38;29.60;;;11.82;;
22995;SDS011;11664;49.774;8.650;2022-12-11T02:10:07;19.50;;;10.18;;
22995;SDS011;11664;49.774;8.650;2022-12-11T02:12:39;19.30;;;11.45;;
22995;SDS011;11664;49.774;8.650;2022-12-11T02:17:59;16.67;;;10.05;;
22995;SDS011;11664;49.774;8.650;2022-12-11T02:20:37;27.45;;;11.15;;
22995;SDS011;11664;49.774;8.650;2022-12-11T02:25:51;24.08;;;10.77;;
22995;SDS011;11664;49.774;8.650;2022-12-11T02:28:32;18.23;;;9.57;;
22995;SDS011;11664;49.774;8.650;2022-12-11T02:31:11;21.48;;;9.93;;
22995;SDS011;11664;49.774;8.650;2022-12-11T02:33:47;17.88;;;8.77;;
22995;SDS011;11664;49.774;8.650;2022-12-11T02:36:19;19.67;;;9.93;;
22995;SDS011;11664;49.774;8.650;2022-12-11T02:38:49;21.55;;;9.85;;
22995;SDS011;11664;49.774;8.650;2022-12-11T02:41:16;18.85;;;10.65;;
22995;SDS011;11664;49.774;8.650;2022-12-11T02:43:44;19.02;;;11.18;;
22995;SDS011;11664;49.774;8.650;2022-12-11T02:46:12;17.92;;;10.63;;
22995;SDS011;11664;49.774;8.650;2022-12-11T02:48:39;23.70;;;12.48;;
22995;SDS011;11664;49.774;8.650;2022-12-11T02:51:06;19.05;;;11.20;;
22995;SDS011;11664;49.774;8.650;2022-12-11T02:53:34;17.17;;;9.90;;
22995;SDS011;11664;49.774;8.650;2022-12-11T02:56:12;18.20;;;10.52;;
22995;SDS011;11664;49.774;8.650;2022-12-11T02:58:46;17.13;;;9.98;;
22995;SDS011;11664;49.774;8.650;2022-12-11T03:01:17;18.88;;;11.38;;
22995;SDS011;11664;49.774;8.650;2022-12-11T03:03:43;18.77;;;9.93;;
22995;SDS011;11664;49.774;8.650;2022-12-11T03:06:09;23.48;;;10.50;;
22995;SDS011;11664;49.774;8.650;2022-12-11T03:08:40;19.63;;;11.43;;
22995;SDS011;11664;49.774;8.650;2022-12-11T03:11:08;22.15;;;10.02;;
22995;SDS011;11664;49.774;8.650;2022-12-11T03:13:35;19.23;;;10.85;;
22995;SDS011;11664;49.774;8.650;2022-12-11T03:21:34;18.30;;;9.43;;
22995;SDS011;11664;49.774;8.650;2022-12-11T03:24:14;26.30;;;15.85;;
22995;SDS011;11664;49.774;8.650;2022-12-11T03:26:51;19.10;;;9.88;;
22995;SDS011;11664;49.774;8.650;2022-12-11T03:29:24;18.17;;;10.02;;
22995;SDS011;11664;49.774;8.650;2022-12-11T03:31:58;22.60;;;11.82;;
22995;SDS011;11664;49.774;8.650;2022-12-11T03:34:34;23.25;;;11.43;;
22995;SDS011;11664;49.774;8.650;2022-12-11T03:37:21;18.05;;;10.02;;
22995;SDS011;11664;49.774;8.650;2022-12-11T03:39:51;22.70;;;10.52;;
22995;SDS011;11664;49.774;8.650;2022-12-11T03:42:20;18.13;;;10.13;;
22995;SDS011;11664;49.774;8.650;2022-12-11T03:44:48;25.10;;;11.50;;
22995;SDS011;11664;49.774;8.650;2022-12-11T03:47:16;25.27;;;10.95;;
22995;SDS011;11664;49.774;8.650;2022-12-11T03:49:43;29.42;;;13.15;;
22995;SDS011;11664;49.774;8.650;2022-12-11T03:52:11;28.63;;;12.93;;
22995;SDS011;11664;49.774;8.650;2022-12-11T03:54:39;22.85;;;12.27;;
22995;SDS011;11664;49.774;8.650;2022-12-11T03:57:08;21.38;;;10.70;;
22995;SDS011;11664;49.774;8.650;2022-12-11T03:59:36;27.00;;;11.90;;
22995;SDS011;11664;49.774;8.650;2022-12-11T04:02:02;20.63;;;11.57;;
22995;SDS011;11664;49.774;8.650;2022-12-11T04:04:35;22.80;;;11.30;;
22995;SDS011;11664;49.774;8.650;2022-12-11T04:07:02;26.48;;;12.98;;
22995;SDS011;11664;49.774;8.650;2022-12-11T04:09:28;26.27;;;11.02;;
22995;SDS011;11664;49.774;8.650;2022-12-11T04:11:53;27.75;;;12.85;;
22995;SDS011;11664;49.774;8.650;2022-12-11T04:14:19;19.08;;;11.32;;
22995;SDS011;11664;49.774;8.650;2022-12-11T04:17:03;21.25;;;11.05;;
22995;SDS011;11664;49.774;8.650;2022-12-11T04:19:29;25.70;;;13.30;;
22995;SDS011;11664;49.774;8.650;2022-12-11T04:22:13;24.67;;;11.90;;
22995;SDS011;11664;49.774;8.650;2022-12-11T04:24:59;22.10;;;12.00;;
22995;SDS011;11664;49.774;8.650;2022-12-11T04:27:25;31.02;;;12.57;;
22995;SDS011;11664;49.774;8.650;2022-12-11T04:30:11;26.05;;;12.35;;
22995;SDS011;11664;49.774;8.650;2022-12-11T04:32:39;25.42;;;11.95;;
22995;SDS011;11664;49.774;8.650;2022-12-11T04:35:05;28.95;;;13.02;;
22995;SDS011;11664;49.774;8.650;2022-12-11T04:37:32;20.92;;;11.40;;
22995;SDS011;11664;49.774;8.650;2022-12-11T04:39:58;20.33;;;10.90;;
22995;SDS011;11664;49.774;8.650;2022-12-11T04:42:23;26.35;;;12.60;;
22995;SDS011;11664;49.774;8.650;2022-12-11T04:44:49;24.10;;;11.50;;
22995;SDS011;11664;49.774;8.650;2022-12-11T04:47:14;22.73;;;13.05;;
22995;SDS011;11664;49.774;8.650;2022-12-11T04:49:40;24.60;;;13.88;;
22995;SDS011;11664;49.774;8.650;2022-12-11T04:52:06;30.02;;;12.30;;
22995;SDS011;11664;49.774;8.650;2022-12-11T04:54:31;24.63;;;11.68;;
22995;SDS011;11664;49.774;8.650;2022-12-11T04:56:57;22.30;;;10.65;;
22995;SDS011;11664;49.774;8.650;2022-12-11T04:59:23;24.80;;;10.50;;
22995;SDS011;11664;49.774;8.650;2022-12-11T05:01:49;23.23;;;11.35;;
22995;SDS011;11664;49.774;8.650;2022-12-11T05:04:14;21.13;;;11.20;;
22995;SDS011;11664;49.774;8.650;2022-12-11T05:06:40;20.63;;;10.52;;
22995;SDS011;11664;49.774;8.650;2022-12-11T05:09:09;23.60;;;9.90;;
22995;SDS011;11664;49.774;8.650;2022-12-11T05:11:35;18.65;;;9.95;;
22995;SDS011;11664;49.774;8.650;2022-12-11T05:14:01;23.25;;;10.23;;
22995;SDS011;11664;49.774;8.650;2022-12-11T05:16:27;15.98;;;10.10;;
22995;SDS011;11664;49.774;8.650;2022-12-11T05:18:53;25.48;;;12.25;;
22995;SDS011;11664;49.774;8.650;2022-12-11T05:21:18;21.75;;;11.35;;
22995;SDS011;11664;49.774;8.650;2022-12-11T05:23:44;28.50;;;12.75;;
22995;SDS011;11664;49.774;8.650;2022-12-11T05:26:11;25.60;;;12.02;;
22995;SDS011;11664;49.774;8.650;2022-12-11T05:28:42;27.88;;;11.98;;
22995;SDS011;11664;49.774;8.650;2022-12-11T05:31:18;30.25;;;13.02;;
22995;SDS011;11664;49.774;8.650;2022-12-11T05:33:46;25.83;;;11.43;;
22995;SDS011;11664;49.774;8.650;2022-12-11T05:36:15;24.75;;;12.43;;
22995;SDS011;11664;49.774;8.650;2022-12-11T05:38:48;22.75;;;12.70;;
22995;SDS011;11664;49.774;8.650;2022-12-11T05:41:16;30.50;;;13.60;;
22995;SDS011;11664;49.774;8.650;2022-12-11T05:43:42;27.02;;;14.40;;
22995;SDS011;11664;49.774;8.650;2022-12-11T05:46:16;22.60;;;13.13;;
22995;SDS011;11664;49.774;8.650;2022-12-11T05:48:46;27.77;;;14.20;;
22995;SDS011;11664;49.774;8.650;2022-12-11T05:51:15;28.70;;;14.73;;
22995;SDS011;11664;49.774;8.650;2022-12-11T05:53:41;29.70;;;14.13;;
22995;SDS011;11664;49.774;8.650;2022-12-11T05:56:12;28.38;;;13.23;;
22995;SDS011;11664;49.774;8.650;2022-12-11T05:58:40;27.20;;;14.97;;
22995;SDS011;11664;49.774;8.650;2022-12-11T06:01:11;32.17;;;12.70;;
22995;SDS011;11664;49.774;8.650;2022-12-11T06:03:41;31.38;;;14.95;;
22995;SDS011;11664;49.774;8.650;2022-12-11T06:06:07;27.77;;;13.20;;
22995;SDS011;11664;49.774;8.650;2022-12-11T06:08:33;29.48;;;13.63;;
22995;SDS011;11664;49.774;8.650;2022-12-11T06:10:59;27.08;;;14.70;;
22995;SDS011;11664;49.774;8.650;2022-12-11T06:13:25;28.48;;;14.63;;
22995;SDS011;11664;49.774;8.650;2022-12-11T06:15:51;26.95;;;15.23;;
22995;SDS011;11664;49.774;8.650;2022-12-11T06:18:17;26.27;;;12.98;;
22995;SDS011;11664;49.774;8.650;2022-12-11T06:20:42;34.45;;;15.23;;
22995;SDS011;11664;49.774;8.650;2022-12-11T06:23:08;25.77;;;13.00;;
22995;SDS011;11664;49.774;8.650;2022-12-11T06:25:36;34.83;;;15.15;;
22995;SDS011;11664;49.774;8.650;2022-12-11T06:28:03;27.65;;;14.00;;
22995;SDS011;11664;49.774;8.650;2022-12-11T06:30:28;33.95;;;13.98;;
22995;SDS011;11664;49.774;8.650;2022-12-11T06:32:54;26.92;;;13.23;;
22995;SDS011;11664;49.774;8.650;2022-12-11T06:35:19;31.98;;;14.48;;
22995;SDS011;11664;49.774;8.650;2022-12-11T06:37:45;27.10;;;14.60;;
22995;SDS011;11664;49.774;8.650;2022-12-11T06:40:11;30.48;;;14.30;;
22995;SDS011;11664;49.774;8.650;2022-12-11T06:42:37;30.15;;;13.80;;
22995;SDS011;11664;49.774;8.650;2022-12-11T06:45:03;27.70;;;12.70;;
22995;SDS011;11664;49.774;8.650;2022-12-11T06:47:29;25.50;;;13.32;;
22995;SDS011;11664;49.774;8.650;2022-12-11T06:49:55;28.92;;;14.60;;
22995;SDS011;11664;49.774;8.650;2022-12-11T06:52:22;31.73;;;14.18;;
22995;SDS011;11664;49.774;8.650;2022-12-11T06:54:48;28.73;;;15.88;;
22995;SDS011;11664;49.774;8.650;2022-12-11T06:57:14;26.00;;;14.05;;
22995;SDS011;11664;49.774;8.650;2022-12-11T06:59:40;28.08;;;13.63;;
22995;SDS011;11664;49.774;8.650;2022-12-11T07:02:06;29.90;;;14.82;;
22995;SDS011;11664;49.774;8.650;2022-12-11T07:04:33;28.42;;;14.05;;
22995;SDS011;11664;49.774;8.650;2022-12-11T07:06:59;33.03;;;14.90;;
22995;SDS011;11664;49.774;8.650;2022-12-11T07:09:25;30.05;;;14.77;;
22995;SDS011;11664;49.774;8.650;2022-12-11T07:11:51;34.17;;;15.63;;
22995;SDS011;11664;49.774;8.650;2022-12-11T07:14:18;26.73;;;13.43;;
22995;SDS011;11664;49.774;8.650;2022-12-11T07:16:44;27.98;;;15.43;;
22995;SDS011;11664;49.774;8.650;2022-12-11T07:19:09;29.90;;;15.88;;
22995;SDS011;11664;49.774;8.650;2022-12-11T07:21:35;30.63;;;14.63;;
22995;SDS011;11664;49.774;8.650;2022-12-11T07:24:01;31.30;;;14.23;;
22995;SDS011;11664;49.774;8.650;2022-12-11T07:26:27;28.75;;;14.50;;
22995;SDS011;11664;49.774;8.650;2022-12-11T07:28:55;26.45;;;14.60;;
22995;SDS011;11664;49.774;8.650;2022-12-11T07:31:23;29.92;;;13.80;;
22995;SDS011;11664;49.774;8.650;2022-12-11T07:34:00;35.35;;;14.57;;
22995;SDS011;11664;49.774;8.650;2022-12-11T07:36:27;34.95;;;15.43;;
22995;SDS011;11664;49.774;8.650;2022-12-11T07:38:53;32.45;;;16.17;;
22995;SDS011;11664;49.774;8.650;2022-12-11T07:41:19;39.35;;;16.67;;
22995;SDS011;11664;49.774;8.650;2022-12-11T07:43:46;34.17;;;14.77;;
22995;SDS011;11664;49.774;8.650;2022-12-11T07:46:18;27.23;;;14.50;;
22995;SDS011;11664;49.774;8.650;2022-12-11T07:48:45;28.17;;;13.18;;
22995;SDS011;11664;49.774;8.650;2022-12-11T07:53:55;35.60;;;15.20;;
22995;SDS011;11664;49.774;8.650;2022-12-11T07:56:21;30.77;;;14.77;;
22995;SDS011;11664;49.774;8.650;2022-12-11T07:58:47;27.52;;;13.20;;
22995;SDS011;11664;49.774;8.650;2022-12-11T08:01:23;35.50;;;14.88;;
22995;SDS011;11664;49.774;8.650;2022-12-11T08:03:50;29.63;;;14.65;;
22995;SDS011;11664;49.774;8.650;2022-12-11T08:06:17;30.38;;;14.20;;
22995;SDS011;11664;49.774;8.650;2022-12-11T08:08:45;29.05;;;14.00;;
22995;SDS011;11664;49.774;8.650;2022-12-11T08:11:12;33.95;;;15.40;;
22995;SDS011;11664;49.774;8.650;2022-12-11T08:14:15;25.73;;;13.45;;
22995;SDS011;11664;49.774;8.650;2022-12-11T08:16:41;36.55;;;14.82;;
22995;SDS011;11664;49.774;8.650;2022-12-11T08:19:08;30.23;;;14.85;;
22995;SDS011;11664;49.774;8.650;2022-12-11T08:21:35;53.67;;;14.65;;
22995;SDS011;11664;49.774;8.650;2022-12-11T08:24:03;34.08;;;15.85;;
22995;SDS011;11664;49.774;8.650;2022-12-11T08:26:32;34.70;;;15.05;;
22995;SDS011;11664;49.774;8.650;2022-12-11T08:28:58;33.88;;;14.27;;
22995;SDS011;11664;49.774;8.650;2022-12-11T08:31:25;27.45;;;12.38;;
22995;SDS011;11664;49.774;8.650;2022-12-11T08:33:51;34.03;;;13.00;;
22995;SDS011;11664;49.774;8.650;2022-12-11T08:36:20;26.33;;;11.35;;
22995;SDS011;11664;49.774;8.650;2022-12-11T08:38:46;29.83;;;13.95;;
22995;SDS011;11664;49.774;8.650;2022-12-11T08:41:14;25.92;;;12.95;;
22995;SDS011;11664;49.774;8.650;2022-12-11T08:43:42;28.05;;;12.73;;
22995;SDS011;11664;49.774;8.650;2022-12-11T08:46:08;30.92;;;13.45;;
22995;SDS011;11664;49.774;8.650;2022-12-11T08:48:35;27.80;;;11.98;;
22995;SDS011;11664;49.774;8.650;2022-12-11T08:51:03;30.45;;;13.60;;
22995;SDS011;11664;49.774;8.650;2022-12-11T08:53:30;30.17;;;13.50;;
22995;SDS011;11664;49.774;8.650;2022-12-11T08:56:00;31.58;;;13.70;;
22995;SDS011;11664;49.774;8.650;2022-12-11T08:58:30;33.10;;;14.00;;
22995;SDS011;11664;49.774;8.650;2022-12-11T09:00:56;28.60;;;14.35;;
22995;SDS011;11664;49.774;8.650;2022-12-11T09:03:22;28.50;;;14.05;;
22995;SDS011;11664;49.774;8.650;2022-12-11T09:05:47;26.80;;;12.98;;
22995;SDS011;11664;49.774;8.650;2022-12-11T09:08:13;28.38;;;13.18;;
22995;SDS011;11664;49.774;8.650;2022-12-11T09:10:39;25.40;;;13.70;;
22995;SDS011;11664;49.774;8.650;2022-12-11T09:13:05;28.02;;;12.60;;
22995;SDS011;11664;49.774;8.650;2022-12-11T09:15:30;31.13;;;13.63;;
22995;SDS011;11664;49.774;8.650;2022-12-11T09:17:56;30.08;;;14.23;;
22995;SDS011;11664;49.774;8.650;2022-12-11T09:20:22;29.48;;;12.23;;
22995;SDS011;11664;49.774;8.650;2022-12-11T09:22:48;31.17;;;14.05;;
22995;SDS011;11664;49.774;8.650;2022-12-11T09:25:14;25.33;;;12.55;;
22995;SDS011;11664;49.774;8.650;2022-12-11T09:27:40;31.08;;;13.73;;
22995;SDS011;11664;49.774;8.650;2022-12-11T09:30:05;28.55;;;13.90;;
22995;SDS011;11664;49.774;8.650;2022-12-11T09:32:32;31.35;;;13.10;;
22995;SDS011;11664;49.774;8.650;2022-12-11T09:34:58;34.20;;;13.38;;
22995;SDS011;11664;49.774;8.650;2022-12-11T09:37:23;35.50;;;14.50;;
22995;SDS011;11664;49.774;8.650;2022-12-11T09:39:49;36.22;;;16.05;;
22995;SDS011;11664;49.774;8.650;2022-12-11T09:45:09;34.17;;;15.43;;
22995;SDS011;11664;49.774;8.650;2022-12-11T09:47:46;35.13;;;14.80;;
22995;SDS011;11664;49.774;8.650;2022-12-11T09:50:33;38.45;;;14.07;;
22995;SDS011;11664;49.774;8.650;2022-12-11T09:58:37;27.15;;;14.15;;
22995;SDS011;11664;49.774;8.650;2022-12-11T10:06:40;45.45;;;17.30;;
22995;SDS011;11664;49.774;8.650;2022-12-11T10:09:29;31.98;;;14.60;;
22995;SDS011;11664;49.774;8.650;2022-12-11T10:15:23;30.98;;;13.27;;
22995;SDS011;11664;49.774;8.650;2022-12-11T10:17:57;34.88;;;12.48;;
22995;SDS011;11664;49.774;8.650;2022-12-11T10:20:25;35.25;;;14.38;;
22995;SDS011;11664;49.774;8.650;2022-12-11T10:22:56;30.92;;;13.25;;
22995;SDS011;11664;49.774;8.650;2022-12-11T10:25:26;33.95;;;13.80;;
22995;SDS011;11664;49.774;8.650;2022-12-11T10:27:59;39.83;;;14.90;;
22995;SDS011;11664;49.774;8.650;2022-12-11T10:30:33;41.78;;;15.32;;
22995;SDS011;11664;49.774;8.650;2022-12-11T10:35:51;36.80;;;13.50;;
22995;SDS011;11664;49.774;8.650;2022-12-11T10:40:54;40.75;;;15.77;;
22995;SDS011;11664;49.774;8.650;2022-12-11T10:48:51;37.25;;;13.60;;
22995;SDS011;11664;49.774;8.650;2022-12-11T10:51:32;33.22;;;14.88;;
22995;SDS011;11664;49.774;8.650;2022-12-11T10:54:04;30.88;;;13.32;;
22995;SDS011;11664;49.774;8.650;2022-12-11T10:56:32;33.80;;;14.35;;
22995;SDS011;11664;49.774;8.650;2022-12-11T10:58:59;37.15;;;14.60;;
22995;SDS011;11664;49.774;8.650;2022-12-11T11:01:26;31.17;;;13.98;;
22995;SDS011;11664;49.774;8.650;2022-12-11T11:03:59;31.38;;;12.40;;
22995;SDS011;11664;49.774;8.650;2022-12-11T11:06:28;34.17;;;15.38;;
22995;SDS011;11664;49.774;8.650;2022-12-11T11:08:55;28.45;;;12.65;;
22995;SDS011;11664;49.774;8.650;2022-12-11T11:11:23;34.38;;;15.18;;
22995;SDS011;11664;49.774;8.650;2022-12-11T11:16:57;33.35;;;12.88;;
22995;SDS011;11664;49.774;8.650;2022-12-11T11:21:56;38.00;;;14.05;;
22995;SDS011;11664;49.774;8.650;2022-12-11T11:26:53;29.02;;;11.90;;
22995;SDS011;11664;49.774;8.650;2022-12-11T11:29:53;34.03;;;12.98;;
22995;SDS011;11664;49.774;8.650;2022-12-11T11:32:19;31.02;;;12.88;;
22995;SDS011;11664;49.774;8.650;2022-12-11T11:34:46;23.40;;;11.70;;
22995;SDS011;11664;49.774;8.650;2022-12-11T11:37:23;30.08;;;13.10;;
22995;SDS011;11664;49.774;8.650;2022-12-11T11:39:54;37.65;;;17.65;;
22995;SDS011;11664;49.774;8.650;2022-12-11T11:42:36;31.38;;;14.15;;
22995;SDS011;11664;49.774;8.650;2022-12-11T11:45:09;37.70;;;14.15;;
22995;SDS011;11664;49.774;8.650;2022-12-11T11:47:39;31.15;;;12.80;;
22995;SDS011;11664;49.774;8.650;2022-12-11T11:55:14;30.52;;;12.57;;
22995;SDS011;11664;49.774;8.650;2022-12-11T11:57:46;35.25;;;13.32;;
22995;SDS011;11664;49.774;8.650;2022-12-11T12:00:19;32.75;;;13.18;;
22995;SDS011;11664;49.774;8.650;2022-12-11T12:02:47;30.27;;;13.37;;
22995;SDS011;11664;49.774;8.650;2022-12-11T12:05:14;29.70;;;12.45;;
22995;SDS011;11664;49.774;8.650;2022-12-11T12:10:25;31.27;;;12.20;;
22995;SDS011;11664;49.774;8.650;2022-12-11T12:15:56;35.25;;;12.75;;
22995;SDS011;11664;49.774;8.650;2022-12-11T12:18:47;32.05;;;13.80;;
22995;SDS011;11664;49.774;8.650;2022-12-11T12:23:48;36.20;;;13.70;;
22995;SDS011;11664;49.774;8.650;2022-12-11T12:26:25;29.60;;;12.93;;
22995;SDS011;11664;49.774;8.650;2022-12-11T12:34:10;25.63;;;12.32;;
22995;SDS011;11664;49.774;8.650;2022-12-11T12:36:56;33.72;;;13.48;;
22995;SDS011;11664;49.774;8.650;2022-12-11T12:47:38;32.03;;;13.40;;
22995;SDS011;11664;49.774;8.650;2022-12-11T12:50:10;34.72;;;14.10;;
22995;SDS011;11664;49.774;8.650;2022-12-11T12:52:38;37.03;;;14.50;;
22995;SDS011;11664;49.774;8.650;2022-12-11T12:57:37;41.70;;;13.85;;
22995;SDS011;11664;49.774;8.650;2022-12-11T13:00:05;33.97;;;13.65;;
22995;SDS011;11664;49.774;8.650;2022-12-11T13:02:32;30.77;;;13.93;;
22995;SDS011;11664;49.774;8.650;2022-12-11T13:05:04;32.38;;;14.32;;
22995;SDS011;11664;49.774;8.650;2022-12-11T13:07:31;32.63;;;14.13;;
22995;SDS011;11664;49.774;8.650;2022-12-11T13:10:07;34.67;;;14.45;;
22995;SDS011;11664;49.774;8.650;2022-12-11T13:12:48;32.40;;;13.43;;
22995;SDS011;11664;49.774;8.650;2022-12-11T13:15:24;33.05;;;13.77;;
22995;SDS011;11664;49.774;8.650;2022-12-11T13:20:52;38.47;;;13.95;;
22995;SDS011;11664;49.774;8.650;2022-12-11T13:23:19;38.53;;;14.02;;
22995;SDS011;11664;49.774;8.650;2022-12-11T13:25:58;33.08;;;14.38;;
22995;SDS011;11664;49.774;8.650;2022-12-11T13:30:58;46.92;;;14.43;;
22995;SDS011;11664;49.774;8.650;2022-12-11T13:33:49;41.38;;;15.48;;
22995;SDS011;11664;49.774;8.650;2022-12-11T13:36:29;45.10;;;14.40;;
22995;SDS011;11664;49.774;8.650;2022-12-11T13:38:59;37.92;;;13.13;;
22995;SDS011;11664;49.774;8.650;2022-12-11T13:41:27;33.75;;;13.02;;
22995;SDS011;11664;49.774;8.650;2022-12-11T13:43:54;32.10;;;14.23;;
22995;SDS011;11664;49.774;8.650;2022-12-11T13:46:29;33.20;;;12.93;;
22995;SDS011;11664;49.774;8.650;2022-12-11T13:49:03;30.75;;;13.23;;
22995;SDS011;11664;49.774;8.650;2022-12-11T13:51:31;39.72;;;17.85;;
22995;SDS011;11664;49.774;8.650;2022-12-11T13:54:04;38.53;;;17.88;;
22995;SDS011;11664;49.774;8.650;2022-12-11T13:56:35;37.05;;;16.38;;
22995;SDS011;11664;49.774;8.650;2022-12-11T13:59:01;43.85;;;15.57;;
22995;SDS011;11664;49.774;8.650;2022-12-11T14:01:28;33.95;;;13.85;;
22995;SDS011;11664;49.774;8.650;2022-12-11T14:04:18;33.42;;;13.73;;
22995;SDS011;11664;49.774;8.650;2022-12-11T14:06:42;31.23;;;14.18;;
22995;SDS011;11664;49.774;8.650;2022-12-11T14:09:08;34.33;;;14.88;;
22995;SDS011;11664;49.774;8.650;2022-12-11T14:11:41;39.40;;;14.57;;
22995;SDS011;11664;49.774;8.650;2022-12-11T14:14:19;42.20;;;15.70;;
22995;SDS011;11664;49.774;8.650;2022-12-11T14:16:54;38.17;;;16.00;;
22995;SDS011;11664;49.774;8.650;2022-12-11T14:19:21;36.00;;;13.85;;
22995;SDS011;11664;49.774;8.650;2022-12-11T14:21:54;46.72;;;16.08;;
22995;SDS011;11664;49.774;8.650;2022-12-11T14:24:20;38.05;;;16.38;;
22995;SDS011;11664;49.774;8.650;2022-12-11T14:26:49;45.58;;;16.08;;
22995;SDS011;11664;49.774;8.650;2022-12-11T14:29:29;40.17;;;16.45;;
22995;SDS011;11664;49.774;8.650;2022-12-11T14:31:57;33.90;;;16.02;;
22995;SDS011;11664;49.774;8.650;2022-12-11T14:34:29;35.47;;;15.43;;
22995;SDS011;11664;49.774;8.650;2022-12-11T14:36:59;35.33;;;15.13;;
22995;SDS011;11664;49.774;8.650;2022-12-11T14:42:12;34.15;;;14.85;;
22995;SDS011;11664;49.774;8.650;2022-12-11T14:44:47;35.33;;;15.82;;
22995;SDS011;11664;49.774;8.650;2022-12-11T14:47:18;33.08;;;12.43;;
22995;SDS011;11664;49.774;8.650;2022-12-11T14:49:55;32.05;;;12.48;;
22995;SDS011;11664;49.774;8.650;2022-12-11T14:52:32;30.40;;;13.65;;
22995;SDS011;11664;49.774;8.650;2022-12-11T14:55:05;33.20;;;13.70;;
22995;SDS011;11664;49.774;8.650;2022-12-11T14:57:32;31.60;;;12.73;;
22995;SDS011;11664;49.774;8.650;2022-12-11T14:59:59;40.08;;;14.13;;
22995;SDS011;11664;49.774;8.650;2022-12-11T15:02:27;31.27;;;13.30;;
22995;SDS011;11664;49.774;8.650;2022-12-11T15:07:34;31.52;;;13.93;;
22995;SDS011;11664;49.774;8.650;2022-12-11T15:10:00;31.48;;;13.32;;
22995;SDS011;11664;49.774;8.650;2022-12-11T15:12:27;37.70;;;13.60;;
22995;SDS011;11664;49.774;8.650;2022-12-11T15:14:57;39.35;;;13.77;;
22995;SDS011;11664;49.774;8.650;2022-12-11T15:17:26;27.33;;;12.57;;
22995;SDS011;11664;49.774;8.650;2022-12-11T15:20:01;31.65;;;13.70;;
22995;SDS011;11664;49.774;8.650;2022-12-11T15:22:33;32.20;;;13.15;;
22995;SDS011;11664;49.774;8.650;2022-12-11T15:24:59;37.47;;;13.82;;
22995;SDS011;11664;49.774;8.650;2022-12-11T15:27:32;33.85;;;13.15;;
22995;SDS011;11664;49.774;8.650;2022-12-11T15:30:02;37.88;;;14.75;;
22995;SDS011;11664;49.774;8.650;2022-12-11T15:32:39;40.05;;;15.10;;
22995;SDS011;11664;49.774;8.650;2022-12-11T15:35:21;41.30;;;15.52;;
22995;SDS011;11664;49.774;8.650;2022-12-11T15:37:56;36.63;;;14.75;;
22995;SDS011;11664;49.774;8.650;2022-12-11T15:40:22;35.30;;;13.32;;
22995;SDS011;11664;49.774;8.650;2022-12-11T15:42:48;37.25;;;14.45;;
22995;SDS011;11664;49.774;8.650;2022-12-11T15:45:25;34.03;;;13.90;;
22995;SDS011;11664;49.774;8.650;2022-12-11T15:47:54;33.88;;;14.73;;
22995;SDS011;11664;49.774;8.650;2022-12-11T15:50:22;38.40;;;13.30;;
22995;SDS011;11664;49.774;8.650;2022-12-11T15:52:50;38.35;;;17.83;;
22995;SDS011;11664;49.774;8.650;2022-12-11T15:55:17;52.13;;;21.40;;
22995;SDS011;11664;49.774;8.650;2022-12-11T15:57:54;30.73;;;12.15;;
22995;SDS011;11664;49.774;8.650;2022-12-11T16:00:22;37.70;;;14.18;;
22995;SDS011;11664;49.774;8.650;2022-12-11T16:02:48;29.30;;;13.88;;
22995;SDS011;11664;49.774;8.650;2022-12-11T16:05:14;33.70;;;14.77;;
22995;SDS011;11664;49.774;8.650;2022-12-11T16:07:41;39.03;;;14.05;;
22995;SDS011;11664;49.774;8.650;2022-12-11T16:10:09;37.85;;;14.23;;
22995;SDS011;11664;49.774;8.650;2022-12-11T16:12:38;23.47;;;9.97;;
22995;SDS011;11664;49.774;8.650;2022-12-11T16:15:04;36.08;;;15.43;;
22995;SDS011;11664;49.774;8.650;2022-12-11T16:17:30;37.85;;;16.90;;
22995;SDS011;11664;49.774;8.650;2022-12-11T16:19:56;38.00;;;18.17;;
22995;SDS011;11664;49.774;8.650;2022-12-11T16:22:21;30.45;;;15.45;;
22995;SDS011;11664;49.774;8.650;2022-12-11T16:24:51;35.20;;;16.33;;
22995;SDS011;11664;49.774;8.650;2022-12-11T16:27:18;44.00;;;15.32;;
22995;SDS011;11664;49.774;8.650;2022-12-11T16:29:44;29.27;;;12.75;;
22995;SDS011;11664;49.774;8.650;2022-12-11T16:32:10;34.75;;;13.00;;
22995;SDS011;11664;49.774;8.650;2022-12-11T16:34:36;41.55;;;16.23;;
22995;SDS011;11664;49.774;8.650;2022-12-11T16:37:03;36.00;;;15.20;;
22995;SDS011;11664;49.774;8.650;2022-12-11T16:39:29;30.60;;;12.45;;
22995;SDS011;11664;49.774;8.650;2022-12-11T16:41:55;35.53;;;15.20;;